TimeEST,TemperatureF,Dew PointF,Humidity,Sea Level PressureIn,VisibilityMPH,Wind Direction,Wind SpeedMPH,Gust SpeedMPH,PrecipitationIn,Events,Conditions,WindDirDegrees,DateUTC
12:15 AM,12.7,6.1,75,30.01,10.0,Calm,Calm,-,N/A,,Overcast,0,2013-02-03 05:15:00
12:39 AM,12.6,6.4,77,30.00,10.0,Calm,Calm,-,N/A,,Overcast,0,2013-02-03 05:39:00
12:55 AM,12.7,6.6,77,30.00,10.0,SE,3.5,-,N/A,,Overcast,130,2013-02-03 05:55:00
1:14 AM,12.7,6.8,77,29.99,10.0,Calm,Calm,-,N/A,,Overcast,0,2013-02-03 06:14:00
1:35 AM,12.7,7.0,78,29.99,10.0,Calm,Calm,-,N/A,,Overcast,0,2013-02-03 06:35:00
1:55 AM,13.1,7.3,78,29.98,10.0,Calm,Calm,-,N/A,,Overcast,0,2013-02-03 06:55:00
2:14 AM,13.1,7.5,78,29.97,10.0,Calm,Calm,-,N/A,,Overcast,0,2013-02-03 07:14:00
2:35 AM,13.5,7.7,78,29.97,10.0,Calm,Calm,-,N/A,,Overcast,0,2013-02-03 07:35:00
2:55 AM,13.5,7.7,78,29.97,10.0,Calm,Calm,-,N/A,,Overcast,0,2013-02-03 07:55:00
3:15 AM,13.6,8.1,78,29.96,10.0,SE,3.5,-,N/A,,Overcast,140,2013-02-03 08:15:00
3:35 AM,13.6,8.2,79,29.95,10.0,Calm,Calm,-,N/A,,Overcast,0,2013-02-03 08:35:00
3:55 AM,13.6,8.4,80,29.94,10.0,Calm,Calm,-,N/A,,Overcast,0,2013-02-03 08:55:00
4:15 AM,13.8,8.4,79,29.93,10.0,Calm,Calm,-,N/A,,Overcast,0,2013-02-03 09:15:00
4:55 AM,13.8,9.5,83,29.91,3.0,SSE,3.5,-,N/A,Snow,Light Snow,150,2013-02-03 09:55:00
5:15 AM,14.0,10.4,86,29.90,2.5,SE,3.5,-,N/A,Snow,Light Snow,140,2013-02-03 10:15:00
5:34 AM,14.2,11.1,88,29.90,2.5,SSE,4.6,-,N/A,Snow,Light Snow,150,2013-02-03 10:34:00
6:15 AM,14.9,12.7,91,29.89,2.5,South,4.6,-,N/A,Snow,Light Snow,170,2013-02-03 11:15:00
6:35 AM,15.6,13.1,90,29.89,7.0,South,4.6,-,N/A,Snow,Light Snow,170,2013-02-03 11:35:00
6:55 AM,17.4,14.7,89,29.89,5.0,WSW,5.8,-,N/A,Snow,Light Snow,240,2013-02-03 11:55:00
7:14 AM,20.1,15.3,81,29.89,5.0,West,11.5,-,N/A,Snow,Light Snow,270,2013-02-03 12:14:00
7:35 AM,20.1,14.2,78,29.89,5.0,West,10.4,16.1,N/A,Snow,Light Snow,260,2013-02-03 12:35:00
7:54 AM,19.9,13.8,77,29.90,7.0,West,12.7,17.3,N/A,Snow,Light Snow,270,2013-02-03 12:54:00
8:15 AM,19.9,14.7,80,29.90,3.0,West,10.4,-,N/A,Snow,Light Snow,260,2013-02-03 13:15:00
8:35 AM,19.4,14.7,82,29.90,1.5,West,8.1,18.4,N/A,Snow,Light Snow,270,2013-02-03 13:35:00
8:54 AM,19.4,15.1,83,29.91,1.0,West,11.5,-,N/A,Snow,Light Snow,280,2013-02-03 13:54:00
9:15 AM,19.4,14.2,80,29.91,1.8,West,11.5,17.3,N/A,Snow,Light Snow,270,2013-02-03 14:15:00
9:35 AM,19.4,14.7,82,29.91,1.5,West,5.8,17.3,N/A,Snow,Light Snow,280,2013-02-03 14:35:00
9:55 AM,19.8,15.6,84,29.90,1.0,West,10.4,17.3,N/A,Snow,Light Snow,280,2013-02-03 14:55:00
10:14 AM,20.1,14.7,80,29.91,2.0,WNW,11.5,20.7,N/A,Snow,Light Snow,290,2013-02-03 15:14:00
10:35 AM,19.9,15.8,84,29.90,0.8,West,11.5,19.6,N/A,Snow,Light Snow,280,2013-02-03 15:35:00
10:54 AM,20.3,16.2,84,29.91,0.8,WNW,12.7,19.6,N/A,Snow,Light Snow,290,2013-02-03 15:54:00
11:15 AM,20.5,15.3,80,29.90,1.2,WNW,15.0,20.7,N/A,Snow,Light Snow,290,2013-02-03 16:15:00
11:35 AM,21.0,15.4,79,29.90,1.8,WNW,11.5,19.6,N/A,Snow,Light Snow,300,2013-02-03 16:35:00
11:54 AM,21.0,15.8,80,29.90,1.2,WNW,16.1,21.9,N/A,Snow,Light Snow,290,2013-02-03 16:54:00
12:15 PM,21.2,15.1,77,29.90,2.5,WNW,16.1,23.0,N/A,Snow,Light Snow,290,2013-02-03 17:15:00
12:34 PM,21.2,14.4,75,29.90,2.0,WNW,18.4,24.2,N/A,Snow,Light Snow,290,2013-02-03 17:34:00
12:55 PM,21.0,15.4,79,29.90,1.5,West,11.5,23.0,N/A,Snow,Light Snow,280,2013-02-03 17:55:00
1:14 PM,21.2,14.9,77,29.90,2.5,WNW,13.8,21.9,N/A,Snow,Light Snow,290,2013-02-03 18:14:00
1:35 PM,21.0,14.9,77,29.90,2.5,WNW,12.7,21.9,N/A,Snow,Light Snow,300,2013-02-03 18:35:00
1:55 PM,21.0,15.8,80,29.91,1.2,WNW,15.0,23.0,N/A,Snow,Light Snow,300,2013-02-03 18:55:00
2:14 PM,21.2,14.9,77,29.91,2.0,NW,13.8,19.6,N/A,Snow,Light Snow,310,2013-02-03 19:14:00
2:35 PM,20.7,14.5,77,29.92,1.8,WNW,18.4,24.2,N/A,Snow,Light Snow,300,2013-02-03 19:35:00
2:55 PM,21.0,13.6,73,29.93,5.0,WNW,17.3,24.2,N/A,Snow,Light Snow,300,2013-02-03 19:55:00
3:15 PM,20.8,13.8,74,29.93,4.0,WNW,16.1,24.2,N/A,Snow,Light Snow,300,2013-02-03 20:15:00
3:35 PM,20.7,13.5,74,29.94,5.0,WNW,13.8,23.0,N/A,Snow,Light Snow,300,2013-02-03 20:35:00
3:54 PM,21.0,13.3,72,29.95,10.0,WNW,16.1,21.9,N/A,,Overcast,300,2013-02-03 20:54:00
4:15 PM,21.0,12.4,69,29.95,10.0,WNW,13.8,21.9,N/A,,Overcast,300,2013-02-03 21:15:00
4:35 PM,21.2,11.8,67,29.96,10.0,WNW,12.7,24.2,N/A,,Overcast,300,2013-02-03 21:35:00
4:55 PM,21.2,12.0,68,29.96,10.0,WNW,15.0,21.9,N/A,,Overcast,300,2013-02-03 21:55:00
5:34 PM,21.6,11.7,66,29.97,10.0,WNW,15.0,25.3,N/A,,Overcast,300,2013-02-03 22:34:00
5:55 PM,22.1,12.2,66,29.96,10.0,WNW,12.7,21.9,N/A,,Overcast,300,2013-02-03 22:55:00
6:14 PM,22.1,12.7,67,29.97,10.0,WNW,10.4,18.4,N/A,,Overcast,300,2013-02-03 23:14:00
6:35 PM,22.1,11.8,65,29.97,10.0,WNW,11.5,19.6,N/A,,Overcast,290,2013-02-03 23:35:00
6:55 PM,22.5,12.6,66,29.98,10.0,WNW,11.5,20.7,N/A,,Overcast,290,2013-02-03 23:55:00
7:15 PM,22.6,11.3,62,29.98,10.0,WNW,9.2,20.7,N/A,,Overcast,290,2013-02-04 00:15:00
7:35 PM,23.0,12.2,63,29.98,10.0,WNW,9.2,17.3,N/A,,Overcast,300,2013-02-04 00:35:00
7:54 PM,23.0,12.7,65,29.98,10.0,WNW,13.8,19.6,N/A,,Overcast,290,2013-02-04 00:54:00
8:15 PM,23.0,12.2,63,29.99,10.0,WNW,9.2,17.3,N/A,,Overcast,290,2013-02-04 01:15:00
8:35 PM,23.0,12.6,64,29.99,10.0,WNW,12.7,18.4,N/A,,Overcast,290,2013-02-04 01:35:00
8:55 PM,23.0,12.4,64,29.99,10.0,WNW,9.2,16.1,N/A,,Overcast,300,2013-02-04 01:55:00
9:15 PM,23.0,12.2,63,29.99,10.0,WNW,9.2,18.4,N/A,,Overcast,300,2013-02-04 02:15:00
9:35 PM,23.0,12.7,65,29.99,10.0,WNW,6.9,-,N/A,,Overcast,300,2013-02-04 02:35:00
9:55 PM,23.0,12.7,65,30.00,10.0,WNW,4.6,-,N/A,,Overcast,290,2013-02-04 02:55:00
10:15 PM,23.0,12.7,65,30.00,10.0,WNW,6.9,-,N/A,,Overcast,300,2013-02-04 03:15:00
10:34 PM,23.0,12.7,65,30.00,10.0,WNW,4.6,-,N/A,,Overcast,290,2013-02-04 03:34:00
10:55 PM,23.0,14.0,68,30.00,10.0,West,6.9,-,N/A,,Overcast,280,2013-02-04 03:55:00
11:15 PM,23.0,14.0,68,30.00,10.0,West,6.9,-,N/A,,Overcast,270,2013-02-04 04:15:00
11:35 PM,23.0,14.7,71,30.00,10.0,West,6.9,-,N/A,Snow,Light Snow,270,2013-02-04 04:35:00
11:55 PM,23.0,14.2,69,30.00,10.0,West,9.2,-,N/A,Snow,Light Snow,270,2013-02-04 04:55:00